sensor_id;sensor_type;location;lat;lon;timestamp;P1;durP1;ratioP1;P2;durP2;ratioP2
66603;SDS011;53460;39.612;8.822;2023-08-21T00:02:16;6.50;;;2.97;;
66603;SDS011;53460;39.612;8.822;2023-08-21T00:04:41;8.60;;;3.20;;
66603;SDS011;53460;39.612;8.822;2023-08-21T00:07:06;5.72;;;3.15;;
66603;SDS011;53460;39.612;8.822;2023-08-21T00:09:34;10.48;;;2.88;;
66603;SDS011;53460;39.612;8.822;2023-08-21T00:11:59;3.85;;;2.80;;
66603;SDS011;53460;39.612;8.822;2023-08-21T00:14:25;3.20;;;2.95;;
66603;SDS011;53460;39.612;8.822;2023-08-21T00:16:50;6.32;;;3.00;;
66603;SDS011;53460;39.612;8.822;2023-08-21T00:19:16;7.00;;;2.97;;
66603;SDS011;53460;39.612;8.822;2023-08-21T00:21:41;5.97;;;2.75;;
66603;SDS011;53460;39.612;8.822;2023-08-21T00:24:07;4.10;;;3.05;;
66603;SDS011;53460;39.612;8.822;2023-08-21T00:26:33;4.63;;;2.97;;
66603;SDS011;53460;39.612;8.822;2023-08-21T00:28:58;9.80;;;2.95;;
66603;SDS011;53460;39.612;8.822;2023-08-21T00:31:24;5.63;;;3.17;;
66603;SDS011;53460;39.612;8.822;2023-08-21T00:33:50;4.60;;;2.80;;
66603;SDS011;53460;39.612;8.822;2023-08-21T00:36:15;5.45;;;2.83;;
66603;SDS011;53460;39.612;8.822;2023-08-21T00:38:41;7.15;;;3.03;;
66603;SDS011;53460;39.612;8.822;2023-08-21T00:41:06;4.03;;;3.10;;
66603;SDS011;53460;39.612;8.822;2023-08-21T00:43:32;5.10;;;3.22;;
66603;SDS011;53460;39.612;8.822;2023-08-21T00:45:57;3.92;;;2.78;;
66603;SDS011;53460;39.612;8.822;2023-08-21T00:48:23;3.30;;;2.63;;
66603;SDS011;53460;39.612;8.822;2023-08-21T00:50:49;4.18;;;2.53;;
66603;SDS011;53460;39.612;8.822;2023-08-21T00:53:15;4.93;;;2.97;;
66603;SDS011;53460;39.612;8.822;2023-08-21T00:55:43;2.92;;;2.63;;
66603;SDS011;53460;39.612;8.822;2023-08-21T00:58:11;3.85;;;3.38;;
66603;SDS011;53460;39.612;8.822;2023-08-21T01:00:38;5.07;;;2.67;;
66603;SDS011;53460;39.612;8.822;2023-08-21T01:03:03;5.20;;;3.17;;
66603;SDS011;53460;39.612;8.822;2023-08-21T01:05:29;6.05;;;3.00;;
66603;SDS011;53460;39.612;8.822;2023-08-21T01:08:01;8.63;;;3.00;;
66603;SDS011;53460;39.612;8.822;2023-08-21T01:10:36;5.38;;;2.70;;
66603;SDS011;53460;39.612;8.822;2023-08-21T01:15:50;6.25;;;2.90;;
66603;SDS011;53460;39.612;8.822;2023-08-21T01:18:16;9.05;;;3.58;;
66603;SDS011;53460;39.612;8.822;2023-08-21T01:20:42;11.52;;;3.25;;
66603;SDS011;53460;39.612;8.822;2023-08-21T01:23:08;6.18;;;3.58;;
66603;SDS011;53460;39.612;8.822;2023-08-21T01:25:34;6.03;;;3.83;;
66603;SDS011;53460;39.612;8.822;2023-08-21T01:28:01;3.83;;;3.03;;
66603;SDS011;53460;39.612;8.822;2023-08-21T01:30:27;7.72;;;3.17;;
66603;SDS011;53460;39.612;8.822;2023-08-21T01:35:19;3.10;;;2.80;;
66603;SDS011;53460;39.612;8.822;2023-08-21T01:37:45;5.45;;;3.10;;
66603;SDS011;53460;39.612;8.822;2023-08-21T01:40:11;5.32;;;2.95;;
66603;SDS011;53460;39.612;8.822;2023-08-21T01:42:37;6.28;;;2.92;;
66603;SDS011;53460;39.612;8.822;2023-08-21T01:45:03;6.65;;;3.08;;
66603;SDS011;53460;39.612;8.822;2023-08-21T01:47:28;6.50;;;3.58;;
66603;SDS011;53460;39.612;8.822;2023-08-21T01:49:54;4.20;;;3.53;;
66603;SDS011;53460;39.612;8.822;2023-08-21T01:52:19;6.93;;;3.25;;
66603;SDS011;53460;39.612;8.822;2023-08-21T01:54:45;4.97;;;2.97;;
66603;SDS011;53460;39.612;8.822;2023-08-21T01:57:13;5.07;;;3.67;;
66603;SDS011;53460;39.612;8.822;2023-08-21T01:59:39;7.57;;;3.67;;
66603;SDS011;53460;39.612;8.822;2023-08-21T02:02:05;5.35;;;3.38;;
66603;SDS011;53460;39.612;8.822;2023-08-21T02:04:31;7.88;;;4.40;;
66603;SDS011;53460;39.612;8.822;2023-08-21T02:06:56;6.10;;;3.30;;
66603;SDS011;53460;39.612;8.822;2023-08-21T02:09:22;6.05;;;3.70;;
66603;SDS011;53460;39.612;8.822;2023-08-21T02:11:47;7.25;;;3.33;;
66603;SDS011;53460;39.612;8.822;2023-08-21T02:14:13;8.25;;;3.00;;
66603;SDS011;53460;39.612;8.822;2023-08-21T02:16:38;6.65;;;3.35;;
66603;SDS011;53460;39.612;8.822;2023-08-21T02:19:04;8.95;;;3.67;;
66603;SDS011;53460;39.612;8.822;2023-08-21T02:21:29;4.88;;;3.15;;
66603;SDS011;53460;39.612;8.822;2023-08-21T02:23:55;3.92;;;3.30;;
66603;SDS011;53460;39.612;8.822;2023-08-21T02:26:20;7.43;;;3.58;;
66603;SDS011;53460;39.612;8.822;2023-08-21T02:28:45;6.93;;;3.60;;
66603;SDS011;53460;39.612;8.822;2023-08-21T02:31:12;7.15;;;3.25;;
66603;SDS011;53460;39.612;8.822;2023-08-21T02:33:37;3.45;;;2.90;;
66603;SDS011;53460;39.612;8.822;2023-08-21T02:36:03;4.20;;;2.72;;
66603;SDS011;53460;39.612;8.822;2023-08-21T02:38:29;7.78;;;3.40;;
66603;SDS011;53460;39.612;8.822;2023-08-21T02:40:56;6.32;;;3.20;;
66603;SDS011;53460;39.612;8.822;2023-08-21T02:43:21;5.30;;;3.30;;
66603;SDS011;53460;39.612;8.822;2023-08-21T02:45:47;7.60;;;3.35;;
66603;SDS011;53460;39.612;8.822;2023-08-21T02:48:12;4.53;;;2.88;;
66603;SDS011;53460;39.612;8.822;2023-08-21T02:50:38;3.22;;;2.92;;
66603;SDS011;53460;39.612;8.822;2023-08-21T02:53:03;4.60;;;2.90;;
66603;SDS011;53460;39.612;8.822;2023-08-21T02:55:29;5.22;;;3.17;;
66603;SDS011;53460;39.612;8.822;2023-08-21T02:57:54;5.68;;;3.10;;
66603;SDS011;53460;39.612;8.822;2023-08-21T03:00:20;6.07;;;3.63;;
66603;SDS011;53460;39.612;8.822;2023-08-21T03:02:45;3.80;;;3.40;;
66603;SDS011;53460;39.612;8.822;2023-08-21T03:05:11;10.98;;;3.35;;
66603;SDS011;53460;39.612;8.822;2023-08-21T03:07:37;7.70;;;2.90;;
66603;SDS011;53460;39.612;8.822;2023-08-21T03:10:02;5.20;;;3.22;;
66603;SDS011;53460;39.612;8.822;2023-08-21T03:12:28;5.30;;;3.13;;
66603;SDS011;53460;39.612;8.822;2023-08-21T03:14:54;6.50;;;3.13;;
66603;SDS011;53460;39.612;8.822;2023-08-21T03:17:19;5.45;;;3.25;;
66603;SDS011;53460;39.612;8.822;2023-08-21T03:19:45;4.93;;;2.97;;
66603;SDS011;53460;39.612;8.822;2023-08-21T03:22:10;3.88;;;3.10;;
66603;SDS011;53460;39.612;8.822;2023-08-21T03:24:36;7.80;;;2.95;;
66603;SDS011;53460;39.612;8.822;2023-08-21T03:27:02;3.58;;;2.80;;
66603;SDS011;53460;39.612;8.822;2023-08-21T03:29:27;4.72;;;2.95;;
66603;SDS011;53460;39.612;8.822;2023-08-21T03:31:53;4.72;;;2.85;;
66603;SDS011;53460;39.612;8.822;2023-08-21T03:34:22;4.00;;;2.95;;
66603;SDS011;53460;39.612;8.822;2023-08-21T03:36:51;6.35;;;3.20;;
66603;SDS011;53460;39.612;8.822;2023-08-21T03:39:17;5.65;;;3.22;;
66603;SDS011;53460;39.612;8.822;2023-08-21T03:41:45;9.45;;;4.53;;
66603;SDS011;53460;39.612;8.822;2023-08-21T03:44:10;6.85;;;3.22;;
66603;SDS011;53460;39.612;8.822;2023-08-21T03:46:37;10.75;;;3.65;;
66603;SDS011;53460;39.612;8.822;2023-08-21T03:49:03;5.65;;;3.75;;
66603;SDS011;53460;39.612;8.822;2023-08-21T03:51:28;10.55;;;3.60;;
66603;SDS011;53460;39.612;8.822;2023-08-21T03:53:55;10.15;;;3.55;;
66603;SDS011;53460;39.612;8.822;2023-08-21T03:56:22;7.07;;;3.47;;
66603;SDS011;53460;39.612;8.822;2023-08-21T03:58:49;9.18;;;4.00;;
66603;SDS011;53460;39.612;8.822;2023-08-21T04:01:15;5.10;;;3.67;;
66603;SDS011;53460;39.612;8.822;2023-08-21T04:03:43;6.57;;;3.53;;
66603;SDS011;53460;39.612;8.822;2023-08-21T04:06:09;5.03;;;3.35;;
66603;SDS011;53460;39.612;8.822;2023-08-21T04:08:34;9.13;;;3.25;;
66603;SDS011;53460;39.612;8.822;2023-08-21T04:11:01;7.68;;;3.63;;
66603;SDS011;53460;39.612;8.822;2023-08-21T04:13:27;9.15;;;3.85;;
66603;SDS011;53460;39.612;8.822;2023-08-21T04:15:53;9.93;;;3.60;;
66603;SDS011;53460;39.612;8.822;2023-08-21T04:18:19;8.38;;;3.90;;
66603;SDS011;53460;39.612;8.822;2023-08-21T04:20:44;7.80;;;3.25;;
66603;SDS011;53460;39.612;8.822;2023-08-21T04:23:10;8.38;;;3.50;;
66603;SDS011;53460;39.612;8.822;2023-08-21T04:25:35;6.20;;;3.50;;
66603;SDS011;53460;39.612;8.822;2023-08-21T04:28:01;5.63;;;3.70;;
66603;SDS011;53460;39.612;8.822;2023-08-21T04:30:27;7.13;;;3.53;;
66603;SDS011;53460;39.612;8.822;2023-08-21T04:32:52;7.05;;;3.88;;
66603;SDS011;53460;39.612;8.822;2023-08-21T04:35:18;9.55;;;4.03;;
66603;SDS011;53460;39.612;8.822;2023-08-21T04:37:45;7.25;;;3.95;;
66603;SDS011;53460;39.612;8.822;2023-08-21T04:40:12;6.95;;;3.95;;
66603;SDS011;53460;39.612;8.822;2023-08-21T04:42:38;8.82;;;4.20;;
66603;SDS011;53460;39.612;8.822;2023-08-21T04:45:04;7.93;;;3.45;;
66603;SDS011;53460;39.612;8.822;2023-08-21T04:47:32;6.38;;;3.78;;
66603;SDS011;53460;39.612;8.822;2023-08-21T04:49:59;7.75;;;4.13;;
66603;SDS011;53460;39.612;8.822;2023-08-21T04:52:26;6.78;;;3.72;;
66603;SDS011;53460;39.612;8.822;2023-08-21T04:54:53;10.20;;;3.40;;
66603;SDS011;53460;39.612;8.822;2023-08-21T04:57:19;5.50;;;3.25;;
66603;SDS011;53460;39.612;8.822;2023-08-21T04:59:48;7.57;;;3.30;;
66603;SDS011;53460;39.612;8.822;2023-08-21T05:02:14;6.43;;;3.40;;
66603;SDS011;53460;39.612;8.822;2023-08-21T05:04:39;11.70;;;3.88;;
66603;SDS011;53460;39.612;8.822;2023-08-21T05:07:05;5.25;;;2.95;;
66603;SDS011;53460;39.612;8.822;2023-08-21T05:09:31;5.68;;;3.20;;
66603;SDS011;53460;39.612;8.822;2023-08-21T05:11:57;4.30;;;3.40;;
66603;SDS011;53460;39.612;8.822;2023-08-21T05:14:24;5.53;;;2.97;;
66603;SDS011;53460;39.612;8.822;2023-08-21T05:16:49;4.97;;;2.97;;
66603;SDS011;53460;39.612;8.822;2023-08-21T05:19:15;10.35;;;3.67;;
66603;SDS011;53460;39.612;8.822;2023-08-21T05:21:41;5.25;;;3.22;;
66603;SDS011;53460;39.612;8.822;2023-08-21T05:24:07;7.78;;;3.58;;
66603;SDS011;53460;39.612;8.822;2023-08-21T05:26:38;10.88;;;3.67;;
66603;SDS011;53460;39.612;8.822;2023-08-21T05:29:03;63.45;;;6.03;;
66603;SDS011;53460;39.612;8.822;2023-08-21T05:31:29;48.05;;;4.80;;
66603;SDS011;53460;39.612;8.822;2023-08-21T05:33:55;17.88;;;4.05;;
66603;SDS011;53460;39.612;8.822;2023-08-21T05:36:20;6.25;;;2.70;;
66603;SDS011;53460;39.612;8.822;2023-08-21T05:38:46;7.78;;;3.28;;
66603;SDS011;53460;39.612;8.822;2023-08-21T05:41:13;6.82;;;2.80;;
66603;SDS011;53460;39.612;8.822;2023-08-21T05:43:39;6.43;;;3.38;;
66603;SDS011;53460;39.612;8.822;2023-08-21T05:46:08;12.90;;;2.83;;
66603;SDS011;53460;39.612;8.822;2023-08-21T05:48:33;4.50;;;2.90;;
66603;SDS011;53460;39.612;8.822;2023-08-21T05:50:59;8.63;;;3.08;;
66603;SDS011;53460;39.612;8.822;2023-08-21T05:53:25;6.53;;;2.80;;
66603;SDS011;53460;39.612;8.822;2023-08-21T05:55:51;7.47;;;3.13;;
66603;SDS011;53460;39.612;8.822;2023-08-21T05:58:17;7.07;;;3.03;;
66603;SDS011;53460;39.612;8.822;2023-08-21T06:00:42;8.40;;;3.15;;
66603;SDS011;53460;39.612;8.822;2023-08-21T06:03:09;10.57;;;3.42;;
66603;SDS011;53460;39.612;8.822;2023-08-21T06:06:01;6.40;;;2.87;;
66603;SDS011;53460;39.612;8.822;2023-08-21T06:08:26;15.75;;;3.25;;
66603;SDS011;53460;39.612;8.822;2023-08-21T06:10:52;6.35;;;2.63;;
66603;SDS011;53460;39.612;8.822;2023-08-21T06:13:18;7.88;;;2.88;;
66603;SDS011;53460;39.612;8.822;2023-08-21T06:15:45;8.15;;;2.80;;
66603;SDS011;53460;39.612;8.822;2023-08-21T06:18:11;4.25;;;3.28;;
66603;SDS011;53460;39.612;8.822;2023-08-21T06:20:36;7.13;;;3.10;;
66603;SDS011;53460;39.612;8.822;2023-08-21T06:23:02;9.50;;;3.47;;
66603;SDS011;53460;39.612;8.822;2023-08-21T06:25:27;7.00;;;3.08;;
66603;SDS011;53460;39.612;8.822;2023-08-21T06:27:56;8.43;;;2.83;;
66603;SDS011;53460;39.612;8.822;2023-08-21T06:30:21;8.63;;;3.20;;
66603;SDS011;53460;39.612;8.822;2023-08-21T06:32:47;6.20;;;2.42;;
66603;SDS011;53460;39.612;8.822;2023-08-21T06:35:12;8.90;;;2.60;;
66603;SDS011;53460;39.612;8.822;2023-08-21T06:37:39;4.88;;;2.50;;
66603;SDS011;53460;39.612;8.822;2023-08-21T06:40:04;3.03;;;2.45;;
66603;SDS011;53460;39.612;8.822;2023-08-21T06:42:30;6.78;;;2.78;;
66603;SDS011;53460;39.612;8.822;2023-08-21T06:44:57;8.40;;;2.50;;
66603;SDS011;53460;39.612;8.822;2023-08-21T06:47:22;4.00;;;2.22;;
66603;SDS011;53460;39.612;8.822;2023-08-21T06:49:48;6.45;;;2.50;;
66603;SDS011;53460;39.612;8.822;2023-08-21T06:52:13;7.47;;;2.65;;
66603;SDS011;53460;39.612;8.822;2023-08-21T06:54:39;6.72;;;2.80;;
66603;SDS011;53460;39.612;8.822;2023-08-21T06:57:04;10.43;;;3.85;;
66603;SDS011;53460;39.612;8.822;2023-08-21T06:59:30;8.10;;;2.95;;
66603;SDS011;53460;39.612;8.822;2023-08-21T07:01:55;6.72;;;3.22;;
66603;SDS011;53460;39.612;8.822;2023-08-21T07:04:21;7.28;;;2.55;;
66603;SDS011;53460;39.612;8.822;2023-08-21T07:06:46;7.43;;;2.50;;
66603;SDS011;53460;39.612;8.822;2023-08-21T07:09:12;4.47;;;2.65;;
66603;SDS011;53460;39.612;8.822;2023-08-21T07:11:37;4.50;;;2.53;;
66603;SDS011;53460;39.612;8.822;2023-08-21T07:14:03;6.88;;;3.22;;
66603;SDS011;53460;39.612;8.822;2023-08-21T07:16:28;3.63;;;2.47;;
66603;SDS011;53460;39.612;8.822;2023-08-21T07:18:54;6.85;;;2.58;;
66603;SDS011;53460;39.612;8.822;2023-08-21T07:21:19;9.13;;;3.13;;
66603;SDS011;53460;39.612;8.822;2023-08-21T07:23:45;5.18;;;2.50;;
66603;SDS011;53460;39.612;8.822;2023-08-21T07:26:11;10.82;;;2.70;;
66603;SDS011;53460;39.612;8.822;2023-08-21T07:28:36;9.73;;;2.83;;
66603;SDS011;53460;39.612;8.822;2023-08-21T07:31:02;6.68;;;2.60;;
66603;SDS011;53460;39.612;8.822;2023-08-21T07:33:27;7.20;;;2.70;;
66603;SDS011;53460;39.612;8.822;2023-08-21T07:36:03;11.52;;;3.08;;
66603;SDS011;53460;39.612;8.822;2023-08-21T07:38:28;8.07;;;2.97;;
66603;SDS011;53460;39.612;8.822;2023-08-21T07:41:06;3.95;;;2.60;;
66603;SDS011;53460;39.612;8.822;2023-08-21T07:43:33;4.50;;;2.60;;
66603;SDS011;53460;39.612;8.822;2023-08-21T07:46:02;6.95;;;3.00;;
66603;SDS011;53460;39.612;8.822;2023-08-21T07:48:28;4.78;;;2.30;;
66603;SDS011;53460;39.612;8.822;2023-08-21T07:50:53;7.03;;;2.88;;
66603;SDS011;53460;39.612;8.822;2023-08-21T07:53:19;6.60;;;2.78;;
66603;SDS011;53460;39.612;8.822;2023-08-21T07:55:44;4.45;;;2.58;;
66603;SDS011;53460;39.612;8.822;2023-08-21T07:58:11;8.88;;;2.40;;
66603;SDS011;53460;39.612;8.822;2023-08-21T08:00:37;5.75;;;3.03;;
66603;SDS011;53460;39.612;8.822;2023-08-21T08:03:03;2.75;;;2.30;;
66603;SDS011;53460;39.612;8.822;2023-08-21T08:05:28;4.20;;;2.78;;
66603;SDS011;53460;39.612;8.822;2023-08-21T08:07:54;6.00;;;2.70;;
66603;SDS011;53460;39.612;8.822;2023-08-21T08:10:19;4.82;;;2.80;;
66603;SDS011;53460;39.612;8.822;2023-08-21T08:12:45;8.35;;;3.00;;
66603;SDS011;53460;39.612;8.822;2023-08-21T08:15:10;10.95;;;3.28;;
66603;SDS011;53460;39.612;8.822;2023-08-21T08:17:36;7.40;;;2.60;;
66603;SDS011;53460;39.612;8.822;2023-08-21T08:20:01;8.73;;;3.13;;
66603;SDS011;53460;39.612;8.822;2023-08-21T08:22:27;9.07;;;2.70;;
66603;SDS011;53460;39.612;8.822;2023-08-21T08:24:52;6.50;;;3.03;;
66603;SDS011;53460;39.612;8.822;2023-08-21T08:27:18;6.20;;;3.00;;
66603;SDS011;53460;39.612;8.822;2023-08-21T08:29:43;6.63;;;2.83;;
66603;SDS011;53460;39.612;8.822;2023-08-21T08:32:09;3.45;;;2.50;;
66603;SDS011;53460;39.612;8.822;2023-08-21T08:34:34;5.93;;;3.13;;
66603;SDS011;53460;39.612;8.822;2023-08-21T08:37:00;4.88;;;2.70;;
66603;SDS011;53460;39.612;8.822;2023-08-21T08:39:25;11.68;;;2.85;;
66603;SDS011;53460;39.612;8.822;2023-08-21T08:41:54;4.10;;;2.60;;
66603;SDS011;53460;39.612;8.822;2023-08-21T08:44:21;5.05;;;2.90;;
66603;SDS011;53460;39.612;8.822;2023-08-21T08:46:49;7.90;;;3.10;;
66603;SDS011;53460;39.612;8.822;2023-08-21T08:49:15;4.53;;;2.65;;
66603;SDS011;53460;39.612;8.822;2023-08-21T08:51:41;4.25;;;2.55;;
66603;SDS011;53460;39.612;8.822;2023-08-21T08:54:07;6.25;;;2.70;;
66603;SDS011;53460;39.612;8.822;2023-08-21T08:56:32;3.45;;;2.63;;
66603;SDS011;53460;39.612;8.822;2023-08-21T08:58:58;4.65;;;2.60;;
66603;SDS011;53460;39.612;8.822;2023-08-21T09:01:23;4.18;;;2.60;;
66603;SDS011;53460;39.612;8.822;2023-08-21T09:03:49;5.05;;;2.65;;
66603;SDS011;53460;39.612;8.822;2023-08-21T09:06:15;3.95;;;2.65;;
66603;SDS011;53460;39.612;8.822;2023-08-21T09:08:50;3.75;;;2.63;;
66603;SDS011;53460;39.612;8.822;2023-08-21T09:11:18;6.70;;;2.47;;
66603;SDS011;53460;39.612;8.822;2023-08-21T09:13:44;6.70;;;2.63;;
66603;SDS011;53460;39.612;8.822;2023-08-21T09:16:10;9.98;;;2.70;;
66603;SDS011;53460;39.612;8.822;2023-08-21T09:18:35;7.13;;;2.88;;
66603;SDS011;53460;39.612;8.822;2023-08-21T09:21:02;5.80;;;2.72;;
66603;SDS011;53460;39.612;8.822;2023-08-21T09:23:27;3.47;;;2.70;;
66603;SDS011;53460;39.612;8.822;2023-08-21T09:25:53;5.22;;;2.88;;
66603;SDS011;53460;39.612;8.822;2023-08-21T09:28:19;7.90;;;2.60;;
66603;SDS011;53460;39.612;8.822;2023-08-21T09:30:49;7.30;;;3.10;;
66603;SDS011;53460;39.612;8.822;2023-08-21T09:33:18;10.48;;;2.95;;
66603;SDS011;53460;39.612;8.822;2023-08-21T09:35:44;6.22;;;2.60;;
66603;SDS011;53460;39.612;8.822;2023-08-21T09:38:10;7.97;;;2.58;;
66603;SDS011;53460;39.612;8.822;2023-08-21T09:40:39;4.50;;;3.20;;
66603;SDS011;53460;39.612;8.822;2023-08-21T09:43:05;5.47;;;2.85;;
66603;SDS011;53460;39.612;8.822;2023-08-21T09:45:30;6.63;;;2.70;;
66603;SDS011;53460;39.612;8.822;2023-08-21T09:47:55;5.60;;;2.85;;
66603;SDS011;53460;39.612;8.822;2023-08-21T09:50:21;6.00;;;2.95;;
66603;SDS011;53460;39.612;8.822;2023-08-21T09:52:47;3.95;;;2.85;;
66603;SDS011;53460;39.612;8.822;2023-08-21T09:55:13;3.75;;;2.90;;
66603;SDS011;53460;39.612;8.822;2023-08-21T09:57:39;3.35;;;2.90;;
66603;SDS011;53460;39.612;8.822;2023-08-21T10:00:06;3.45;;;2.80;;
66603;SDS011;53460;39.612;8.822;2023-08-21T10:02:49;3.45;;;2.85;;
66603;SDS011;53460;39.612;8.822;2023-08-21T10:05:18;4.85;;;3.05;;
66603;SDS011;53460;39.612;8.822;2023-08-21T10:07:44;9.65;;;3.42;;
66603;SDS011;53460;39.612;8.822;2023-08-21T10:10:12;4.00;;;3.50;;
66603;SDS011;53460;39.612;8.822;2023-08-21T10:12:38;10.82;;;3.42;;
66603;SDS011;53460;39.612;8.822;2023-08-21T10:15:03;4.47;;;3.55;;
66603;SDS011;53460;39.612;8.822;2023-08-21T10:17:30;5.95;;;3.30;;
66603;SDS011;53460;39.612;8.822;2023-08-21T10:20:01;5.25;;;2.95;;
66603;SDS011;53460;39.612;8.822;2023-08-21T10:22:44;6.00;;;3.55;;
66603;SDS011;53460;39.612;8.822;2023-08-21T10:25:43;4.55;;;3.20;;
66603;SDS011;53460;39.612;8.822;2023-08-21T10:28:01;4.43;;;3.50;;
66603;SDS011;53460;39.612;8.822;2023-08-21T10:30:28;3.72;;;3.38;;
66603;SDS011;53460;39.612;8.822;2023-08-21T10:32:55;3.90;;;3.30;;
66603;SDS011;53460;39.612;8.822;2023-08-21T10:35:21;4.15;;;3.35;;
66603;SDS011;53460;39.612;8.822;2023-08-21T10:40:32;4.50;;;3.25;;
66603;SDS011;53460;39.612;8.822;2023-08-21T10:42:58;3.50;;;3.20;;
66603;SDS011;53460;39.612;8.822;2023-08-21T10:45:24;5.65;;;3.40;;
66603;SDS011;53460;39.612;8.822;2023-08-21T10:47:49;3.88;;;3.45;;
66603;SDS011;53460;39.612;8.822;2023-08-21T10:50:16;5.90;;;3.40;;
66603;SDS011;53460;39.612;8.822;2023-08-21T10:52:42;6.43;;;3.47;;
66603;SDS011;53460;39.612;8.822;2023-08-21T10:55:10;3.80;;;3.47;;
66603;SDS011;53460;39.612;8.822;2023-08-21T10:57:36;3.63;;;3.33;;
66603;SDS011;53460;39.612;8.822;2023-08-21T11:00:09;5.43;;;4.03;;
66603;SDS011;53460;39.612;8.822;2023-08-21T11:02:35;4.78;;;3.47;;
66603;SDS011;53460;39.612;8.822;2023-08-21T11:05:01;5.15;;;3.22;;
66603;SDS011;53460;39.612;8.822;2023-08-21T11:07:28;3.95;;;3.55;;
66603;SDS011;53460;39.612;8.822;2023-08-21T11:09:54;10.70;;;3.30;;
66603;SDS011;53460;39.612;8.822;2023-08-21T11:12:20;3.92;;;3.30;;
66603;SDS011;53460;39.612;8.822;2023-08-21T11:14:46;6.20;;;3.65;;
66603;SDS011;53460;39.612;8.822;2023-08-21T11:17:12;7.68;;;3.78;;
66603;SDS011;53460;39.612;8.822;2023-08-21T11:19:38;3.42;;;3.13;;
66603;SDS011;53460;39.612;8.822;2023-08-21T11:22:04;4.10;;;3.70;;
66603;SDS011;53460;39.612;8.822;2023-08-21T11:24:51;14.27;;;4.00;;
66603;SDS011;53460;39.612;8.822;2023-08-21T11:27:17;7.65;;;4.03;;
66603;SDS011;53460;39.612;8.822;2023-08-21T11:29:44;4.60;;;3.50;;
66603;SDS011;53460;39.612;8.822;2023-08-21T11:32:13;3.95;;;3.65;;
66603;SDS011;53460;39.612;8.822;2023-08-21T11:34:40;3.45;;;3.20;;
66603;SDS011;53460;39.612;8.822;2023-08-21T11:37:06;4.95;;;3.50;;
66603;SDS011;53460;39.612;8.822;2023-08-21T11:39:45;5.93;;;3.50;;
66603;SDS011;53460;39.612;8.822;2023-08-21T11:42:11;4.05;;;3.55;;
66603;SDS011;53460;39.612;8.822;2023-08-21T11:44:46;5.25;;;3.70;;
66603;SDS011;53460;39.612;8.822;2023-08-21T11:47:12;3.72;;;3.42;;
66603;SDS011;53460;39.612;8.822;2023-08-21T11:49:39;5.70;;;3.75;;
66603;SDS011;53460;39.612;8.822;2023-08-21T11:52:05;4.07;;;3.67;;
66603;SDS011;53460;39.612;8.822;2023-08-21T11:54:34;4.90;;;3.50;;
66603;SDS011;53460;39.612;8.822;2023-08-21T11:57:02;4.78;;;3.58;;
66603;SDS011;53460;39.612;8.822;2023-08-21T11:59:29;6.13;;;3.58;;
66603;SDS011;53460;39.612;8.822;2023-08-21T12:01:55;4.53;;;3.95;;
66603;SDS011;53460;39.612;8.822;2023-08-21T12:04:20;4.38;;;3.97;;
66603;SDS011;53460;39.612;8.822;2023-08-21T12:06:46;4.50;;;3.83;;
66603;SDS011;53460;39.612;8.822;2023-08-21T12:09:11;5.65;;;3.60;;
66603;SDS011;53460;39.612;8.822;2023-08-21T12:11:37;3.97;;;3.65;;
66603;SDS011;53460;39.612;8.822;2023-08-21T12:14:03;5.43;;;4.10;;
66603;SDS011;53460;39.612;8.822;2023-08-21T12:16:29;8.77;;;3.83;;
66603;SDS011;53460;39.612;8.822;2023-08-21T12:18:55;4.20;;;3.88;;
66603;SDS011;53460;39.612;8.822;2023-08-21T12:21:23;5.32;;;4.03;;
66603;SDS011;53460;39.612;8.822;2023-08-21T12:23:48;4.40;;;4.00;;
66603;SDS011;53460;39.612;8.822;2023-08-21T12:26:14;5.38;;;3.83;;
66603;SDS011;53460;39.612;8.822;2023-08-21T12:28:49;6.65;;;4.00;;
66603;SDS011;53460;39.612;8.822;2023-08-21T12:31:14;4.60;;;3.70;;
66603;SDS011;53460;39.612;8.822;2023-08-21T12:33:40;8.38;;;3.92;;
66603;SDS011;53460;39.612;8.822;2023-08-21T12:36:06;3.50;;;3.20;;
66603;SDS011;53460;39.612;8.822;2023-08-21T12:38:31;4.22;;;3.83;;
66603;SDS011;53460;39.612;8.822;2023-08-21T12:40:57;4.15;;;3.65;;
66603;SDS011;53460;39.612;8.822;2023-08-21T12:43:23;4.60;;;3.50;;
66603;SDS011;53460;39.612;8.822;2023-08-21T12:45:49;6.63;;;3.78;;
66603;SDS011;53460;39.612;8.822;2023-08-21T12:48:14;4.22;;;3.72;;
66603;SDS011;53460;39.612;8.822;2023-08-21T12:50:40;3.92;;;3.50;;
66603;SDS011;53460;39.612;8.822;2023-08-21T12:53:05;5.53;;;3.10;;
66603;SDS011;53460;39.612;8.822;2023-08-21T12:55:30;5.72;;;3.35;;
66603;SDS011;53460;39.612;8.822;2023-08-21T12:57:56;10.00;;;4.05;;
66603;SDS011;53460;39.612;8.822;2023-08-21T13:00:22;7.00;;;3.80;;
66603;SDS011;53460;39.612;8.822;2023-08-21T13:02:47;5.15;;;4.07;;
66603;SDS011;53460;39.612;8.822;2023-08-21T13:05:13;3.35;;;3.05;;
66603;SDS011;53460;39.612;8.822;2023-08-21T13:07:41;6.63;;;3.63;;
66603;SDS011;53460;39.612;8.822;2023-08-21T13:10:06;5.90;;;3.30;;
66603;SDS011;53460;39.612;8.822;2023-08-21T13:12:32;6.20;;;3.00;;
66603;SDS011;53460;39.612;8.822;2023-08-21T13:14:57;4.03;;;2.92;;
66603;SDS011;53460;39.612;8.822;2023-08-21T13:17:24;6.10;;;2.88;;
66603;SDS011;53460;39.612;8.822;2023-08-21T13:19:49;4.05;;;3.03;;
66603;SDS011;53460;39.612;8.822;2023-08-21T13:22:16;7.07;;;3.33;;
66603;SDS011;53460;39.612;8.822;2023-08-21T13:24:41;3.63;;;3.00;;
66603;SDS011;53460;39.612;8.822;2023-08-21T13:27:07;4.75;;;3.28;;
66603;SDS011;53460;39.612;8.822;2023-08-21T13:29:32;5.75;;;3.47;;
66603;SDS011;53460;39.612;8.822;2023-08-21T13:31:58;3.63;;;3.33;;
66603;SDS011;53460;39.612;8.822;2023-08-21T13:34:23;5.15;;;2.95;;
66603;SDS011;53460;39.612;8.822;2023-08-21T13:36:49;3.17;;;2.88;;
66603;SDS011;53460;39.612;8.822;2023-08-21T13:39:15;4.28;;;3.88;;
66603;SDS011;53460;39.612;8.822;2023-08-21T13:41:41;4.65;;;3.22;;
66603;SDS011;53460;39.612;8.822;2023-08-21T13:44:06;4.72;;;3.40;;
66603;SDS011;53460;39.612;8.822;2023-08-21T13:46:36;5.85;;;3.40;;
66603;SDS011;53460;39.612;8.822;2023-08-21T13:49:01;3.90;;;3.60;;
66603;SDS011;53460;39.612;8.822;2023-08-21T13:51:27;4.82;;;3.33;;
66603;SDS011;53460;39.612;8.822;2023-08-21T13:53:52;3.80;;;3.35;;
66603;SDS011;53460;39.612;8.822;2023-08-21T13:56:18;4.53;;;3.30;;
66603;SDS011;53460;39.612;8.822;2023-08-21T13:58:43;4.60;;;3.30;;
66603;SDS011;53460;39.612;8.822;2023-08-21T14:01:09;7.13;;;3.00;;
66603;SDS011;53460;39.612;8.822;2023-08-21T14:03:34;4.40;;;3.05;;
66603;SDS011;53460;39.612;8.822;2023-08-21T14:06:00;4.50;;;3.33;;
66603;SDS011;53460;39.612;8.822;2023-08-21T14:08:25;4.10;;;3.50;;
66603;SDS011;53460;39.612;8.822;2023-08-21T14:10:51;7.65;;;3.80;;
66603;SDS011;53460;39.612;8.822;2023-08-21T14:13:16;3.63;;;3.30;;
66603;SDS011;53460;39.612;8.822;2023-08-21T14:15:42;3.35;;;3.05;;
66603;SDS011;53460;39.612;8.822;2023-08-21T14:18:07;3.45;;;3.15;;
66603;SDS011;53460;39.612;8.822;2023-08-21T14:20:33;4.30;;;3.30;;
66603;SDS011;53460;39.612;8.822;2023-08-21T14:22:58;7.85;;;3.50;;
66603;SDS011;53460;39.612;8.822;2023-08-21T14:25:24;5.20;;;3.50;;
66603;SDS011;53460;39.612;8.822;2023-08-21T14:27:49;3.55;;;3.20;;
66603;SDS011;53460;39.612;8.822;2023-08-21T14:30:15;4.93;;;3.25;;
66603;SDS011;53460;39.612;8.822;2023-08-21T14:32:40;4.45;;;3.30;;
66603;SDS011;53460;39.612;8.822;2023-08-21T14:35:07;5.30;;;3.95;;
66603;SDS011;53460;39.612;8.822;2023-08-21T14:37:33;4.93;;;3.58;;
66603;SDS011;53460;39.612;8.822;2023-08-21T14:39:59;10.77;;;3.60;;
66603;SDS011;53460;39.612;8.822;2023-08-21T14:42:24;3.90;;;3.22;;
66603;SDS011;53460;39.612;8.822;2023-08-21T14:44:49;4.85;;;3.58;;
66603;SDS011;53460;39.612;8.822;2023-08-21T14:47:15;3.70;;;3.17;;
66603;SDS011;53460;39.612;8.822;2023-08-21T14:49:40;3.50;;;3.20;;